Arlington, Oregon
Current Conditions -  °F | °C
As of 10:53 PM on Saturday 25 Oct 2014 (Local Time) from KHRI Reporting Station
Few Clouds Few Clouds  
Wind Chill: 13°   Ceiling: Unl
Heat Index: 13°   Visibility: 10mi
Dew Point:   Wind: 9mph
Humidity: 60%   Direction: 240°WSW
Pressure: 29.76"   Gusts: NA
Location:  45.72°N, 120.2°W
Report Text: KHRI 260553Z AUTO 24008KT 10SM FEW100 13/06 A2976 RMK AO2 PK WND 26033/0458 SLP076 60000 T01330056 10178 20133 51063
Loading
Personal Weather Stations






























Interactive Weather Map
Tropical Storm Tracking
New forecast layout! Learn more

10-Day Weather Forecast

Advertisements
Track Severe Weather on mobile